sensor_id;sensor_type;location;lat;lon;timestamp;P1;durP1;ratioP1;P2;durP2;ratioP2
75220;SDS011;63802;53.232;6.570;2023-05-23T00:00:54;32.92;;;11.77;;
75220;SDS011;63802;53.232;6.570;2023-05-23T00:03:22;36.38;;;11.95;;
75220;SDS011;63802;53.232;6.570;2023-05-23T00:05:51;33.17;;;11.63;;
75220;SDS011;63802;53.232;6.570;2023-05-23T00:08:17;33.28;;;10.95;;
75220;SDS011;63802;53.232;6.570;2023-05-23T00:10:43;27.80;;;10.73;;
75220;SDS011;63802;53.232;6.570;2023-05-23T00:13:08;28.45;;;10.27;;
75220;SDS011;63802;53.232;6.570;2023-05-23T00:15:40;27.17;;;11.95;;
75220;SDS011;63802;53.232;6.570;2023-05-23T00:18:06;29.98;;;12.73;;
75220;SDS011;63802;53.232;6.570;2023-05-23T00:20:33;34.00;;;12.40;;
75220;SDS011;63802;53.232;6.570;2023-05-23T00:23:00;27.40;;;10.82;;
75220;SDS011;63802;53.232;6.570;2023-05-23T00:25:27;26.38;;;11.27;;
75220;SDS011;63802;53.232;6.570;2023-05-23T00:27:58;31.05;;;11.23;;
75220;SDS011;63802;53.232;6.570;2023-05-23T00:30:24;26.17;;;11.27;;
75220;SDS011;63802;53.232;6.570;2023-05-23T00:32:50;36.08;;;13.23;;
75220;SDS011;63802;53.232;6.570;2023-05-23T00:35:18;30.25;;;12.63;;
75220;SDS011;63802;53.232;6.570;2023-05-23T00:37:44;31.88;;;12.88;;
75220;SDS011;63802;53.232;6.570;2023-05-23T00:40:11;29.95;;;13.93;;
75220;SDS011;63802;53.232;6.570;2023-05-23T00:42:37;34.95;;;13.30;;
75220;SDS011;63802;53.232;6.570;2023-05-23T00:45:02;36.90;;;13.40;;
75220;SDS011;63802;53.232;6.570;2023-05-23T00:47:29;25.60;;;12.07;;
75220;SDS011;63802;53.232;6.570;2023-05-23T00:49:55;26.33;;;12.50;;
75220;SDS011;63802;53.232;6.570;2023-05-23T00:52:20;25.85;;;11.27;;
75220;SDS011;63802;53.232;6.570;2023-05-23T00:54:46;21.90;;;11.10;;
75220;SDS011;63802;53.232;6.570;2023-05-23T00:57:11;23.25;;;11.02;;
75220;SDS011;63802;53.232;6.570;2023-05-23T00:59:37;20.55;;;10.63;;
75220;SDS011;63802;53.232;6.570;2023-05-23T01:02:03;25.25;;;10.73;;
75220;SDS011;63802;53.232;6.570;2023-05-23T01:04:28;21.80;;;9.93;;
75220;SDS011;63802;53.232;6.570;2023-05-23T01:06:58;28.00;;;10.00;;
75220;SDS011;63802;53.232;6.570;2023-05-23T01:09:25;20.67;;;8.77;;
75220;SDS011;63802;53.232;6.570;2023-05-23T01:14:28;16.50;;;8.18;;
75220;SDS011;63802;53.232;6.570;2023-05-23T01:17:18;18.95;;;7.55;;
75220;SDS011;63802;53.232;6.570;2023-05-23T01:19:54;21.45;;;7.43;;
75220;SDS011;63802;53.232;6.570;2023-05-23T01:28:08;22.80;;;8.32;;
75220;SDS011;63802;53.232;6.570;2023-05-23T01:30:39;19.80;;;7.85;;
75220;SDS011;63802;53.232;6.570;2023-05-23T01:33:08;21.63;;;7.25;;
75220;SDS011;63802;53.232;6.570;2023-05-23T01:35:35;22.63;;;8.20;;
75220;SDS011;63802;53.232;6.570;2023-05-23T01:38:01;25.95;;;8.20;;
75220;SDS011;63802;53.232;6.570;2023-05-23T01:40:26;21.05;;;8.15;;
75220;SDS011;63802;53.232;6.570;2023-05-23T01:42:52;30.30;;;8.82;;
75220;SDS011;63802;53.232;6.570;2023-05-23T01:45:21;22.77;;;7.73;;
75220;SDS011;63802;53.232;6.570;2023-05-23T01:47:50;22.98;;;8.77;;
75220;SDS011;63802;53.232;6.570;2023-05-23T01:50:17;32.58;;;7.45;;
75220;SDS011;63802;53.232;6.570;2023-05-23T01:52:43;25.13;;;8.23;;
75220;SDS011;63802;53.232;6.570;2023-05-23T01:55:10;22.60;;;7.53;;
75220;SDS011;63802;53.232;6.570;2023-05-23T01:57:39;24.25;;;7.68;;
75220;SDS011;63802;53.232;6.570;2023-05-23T02:00:06;26.70;;;7.68;;
75220;SDS011;63802;53.232;6.570;2023-05-23T02:02:34;27.38;;;8.45;;
75220;SDS011;63802;53.232;6.570;2023-05-23T02:05:00;26.85;;;8.43;;
75220;SDS011;63802;53.232;6.570;2023-05-23T02:07:26;26.95;;;8.18;;
75220;SDS011;63802;53.232;6.570;2023-05-23T02:09:52;24.08;;;7.25;;
75220;SDS011;63802;53.232;6.570;2023-05-23T02:12:18;22.90;;;6.82;;
75220;SDS011;63802;53.232;6.570;2023-05-23T02:14:43;22.17;;;7.57;;
75220;SDS011;63802;53.232;6.570;2023-05-23T02:17:09;25.02;;;6.97;;
75220;SDS011;63802;53.232;6.570;2023-05-23T02:19:35;20.52;;;7.18;;
75220;SDS011;63802;53.232;6.570;2023-05-23T02:22:00;25.58;;;6.82;;
75220;SDS011;63802;53.232;6.570;2023-05-23T02:24:26;18.48;;;6.25;;
75220;SDS011;63802;53.232;6.570;2023-05-23T02:26:54;30.65;;;6.75;;
75220;SDS011;63802;53.232;6.570;2023-05-23T02:29:20;21.25;;;6.63;;
75220;SDS011;63802;53.232;6.570;2023-05-23T02:31:45;19.35;;;6.53;;
75220;SDS011;63802;53.232;6.570;2023-05-23T02:34:11;22.83;;;6.38;;
75220;SDS011;63802;53.232;6.570;2023-05-23T02:36:36;22.67;;;6.50;;
75220;SDS011;63802;53.232;6.570;2023-05-23T02:39:03;25.08;;;8.57;;
75220;SDS011;63802;53.232;6.570;2023-05-23T02:41:29;43.17;;;7.53;;
75220;SDS011;63802;53.232;6.570;2023-05-23T02:43:55;21.63;;;6.40;;
75220;SDS011;63802;53.232;6.570;2023-05-23T02:46:20;17.65;;;5.88;;
75220;SDS011;63802;53.232;6.570;2023-05-23T02:48:45;24.27;;;7.15;;
75220;SDS011;63802;53.232;6.570;2023-05-23T02:51:11;30.40;;;6.72;;
75220;SDS011;63802;53.232;6.570;2023-05-23T02:53:37;20.77;;;5.85;;
75220;SDS011;63802;53.232;6.570;2023-05-23T02:56:03;25.20;;;7.07;;
75220;SDS011;63802;53.232;6.570;2023-05-23T02:58:28;24.30;;;6.70;;
75220;SDS011;63802;53.232;6.570;2023-05-23T03:00:54;24.30;;;6.43;;
75220;SDS011;63802;53.232;6.570;2023-05-23T03:03:20;26.85;;;7.18;;
75220;SDS011;63802;53.232;6.570;2023-05-23T03:05:45;25.85;;;7.00;;
75220;SDS011;63802;53.232;6.570;2023-05-23T03:08:11;22.67;;;6.32;;
75220;SDS011;63802;53.232;6.570;2023-05-23T03:10:36;20.95;;;6.93;;
75220;SDS011;63802;53.232;6.570;2023-05-23T03:13:02;26.30;;;7.40;;
75220;SDS011;63802;53.232;6.570;2023-05-23T03:15:27;24.15;;;6.97;;
75220;SDS011;63802;53.232;6.570;2023-05-23T03:17:52;27.00;;;6.20;;
75220;SDS011;63802;53.232;6.570;2023-05-23T03:20:18;19.80;;;6.32;;
75220;SDS011;63802;53.232;6.570;2023-05-23T03:22:43;21.80;;;6.22;;
75220;SDS011;63802;53.232;6.570;2023-05-23T03:25:09;14.90;;;5.75;;
75220;SDS011;63802;53.232;6.570;2023-05-23T03:27:35;19.85;;;6.28;;
75220;SDS011;63802;53.232;6.570;2023-05-23T03:30:01;20.67;;;5.70;;
75220;SDS011;63802;53.232;6.570;2023-05-23T03:32:27;18.33;;;5.00;;
75220;SDS011;63802;53.232;6.570;2023-05-23T03:34:53;14.95;;;5.57;;
75220;SDS011;63802;53.232;6.570;2023-05-23T03:37:18;14.73;;;5.15;;
75220;SDS011;63802;53.232;6.570;2023-05-23T03:39:43;20.08;;;5.40;;
75220;SDS011;63802;53.232;6.570;2023-05-23T03:42:09;23.17;;;5.93;;
75220;SDS011;63802;53.232;6.570;2023-05-23T03:44:34;20.52;;;5.82;;
75220;SDS011;63802;53.232;6.570;2023-05-23T03:46:59;16.75;;;5.05;;
75220;SDS011;63802;53.232;6.570;2023-05-23T03:49:25;15.13;;;4.82;;
75220;SDS011;63802;53.232;6.570;2023-05-23T03:51:50;21.35;;;5.95;;
75220;SDS011;63802;53.232;6.570;2023-05-23T03:54:16;19.55;;;4.72;;
75220;SDS011;63802;53.232;6.570;2023-05-23T03:56:42;13.35;;;4.65;;
75220;SDS011;63802;53.232;6.570;2023-05-23T03:59:08;15.13;;;4.78;;
75220;SDS011;63802;53.232;6.570;2023-05-23T04:01:33;11.50;;;4.47;;
75220;SDS011;63802;53.232;6.570;2023-05-23T04:03:58;18.08;;;5.35;;
75220;SDS011;63802;53.232;6.570;2023-05-23T04:06:24;13.90;;;5.05;;
75220;SDS011;63802;53.232;6.570;2023-05-23T04:08:50;24.38;;;5.78;;
75220;SDS011;63802;53.232;6.570;2023-05-23T04:11:15;17.75;;;4.88;;
75220;SDS011;63802;53.232;6.570;2023-05-23T04:13:42;16.65;;;5.43;;
75220;SDS011;63802;53.232;6.570;2023-05-23T04:16:07;14.20;;;5.13;;
75220;SDS011;63802;53.232;6.570;2023-05-23T04:18:33;18.42;;;4.93;;
75220;SDS011;63802;53.232;6.570;2023-05-23T04:20:59;15.05;;;4.28;;
75220;SDS011;63802;53.232;6.570;2023-05-23T04:23:25;10.50;;;3.90;;
75220;SDS011;63802;53.232;6.570;2023-05-23T04:25:50;13.77;;;4.47;;
75220;SDS011;63802;53.232;6.570;2023-05-23T04:28:16;12.30;;;3.88;;
75220;SDS011;63802;53.232;6.570;2023-05-23T04:30:42;12.48;;;4.90;;
75220;SDS011;63802;53.232;6.570;2023-05-23T04:33:08;10.80;;;3.45;;
75220;SDS011;63802;53.232;6.570;2023-05-23T04:35:34;11.93;;;3.40;;
75220;SDS011;63802;53.232;6.570;2023-05-23T04:38:02;19.30;;;4.20;;
75220;SDS011;63802;53.232;6.570;2023-05-23T04:40:28;14.25;;;4.35;;
75220;SDS011;63802;53.232;6.570;2023-05-23T04:42:54;21.85;;;4.75;;
75220;SDS011;63802;53.232;6.570;2023-05-23T04:45:20;14.90;;;3.78;;
75220;SDS011;63802;53.232;6.570;2023-05-23T04:47:46;14.98;;;4.07;;
75220;SDS011;63802;53.232;6.570;2023-05-23T04:50:12;17.40;;;4.60;;
75220;SDS011;63802;53.232;6.570;2023-05-23T04:52:40;19.70;;;5.40;;
75220;SDS011;63802;53.232;6.570;2023-05-23T04:55:06;21.25;;;5.40;;
75220;SDS011;63802;53.232;6.570;2023-05-23T04:57:35;20.27;;;6.32;;
75220;SDS011;63802;53.232;6.570;2023-05-23T05:00:01;17.60;;;5.78;;
75220;SDS011;63802;53.232;6.570;2023-05-23T05:02:31;15.88;;;6.15;;
75220;SDS011;63802;53.232;6.570;2023-05-23T05:04:59;22.48;;;6.50;;
75220;SDS011;63802;53.232;6.570;2023-05-23T05:07:24;35.67;;;6.50;;
75220;SDS011;63802;53.232;6.570;2023-05-23T05:09:50;27.92;;;6.15;;
75220;SDS011;63802;53.232;6.570;2023-05-23T05:12:15;20.85;;;5.95;;
75220;SDS011;63802;53.232;6.570;2023-05-23T05:14:40;16.17;;;6.03;;
75220;SDS011;63802;53.232;6.570;2023-05-23T05:17:06;33.22;;;6.57;;
75220;SDS011;63802;53.232;6.570;2023-05-23T05:19:32;16.55;;;5.57;;
75220;SDS011;63802;53.232;6.570;2023-05-23T05:21:57;16.42;;;5.15;;
75220;SDS011;63802;53.232;6.570;2023-05-23T05:24:24;21.55;;;5.45;;
75220;SDS011;63802;53.232;6.570;2023-05-23T05:26:49;15.57;;;5.20;;
75220;SDS011;63802;53.232;6.570;2023-05-23T05:29:14;17.48;;;4.80;;
75220;SDS011;63802;53.232;6.570;2023-05-23T05:31:40;17.50;;;4.78;;
75220;SDS011;63802;53.232;6.570;2023-05-23T05:34:07;17.63;;;5.13;;
75220;SDS011;63802;53.232;6.570;2023-05-23T05:36:32;14.05;;;4.57;;
75220;SDS011;63802;53.232;6.570;2023-05-23T05:38:58;17.00;;;4.97;;
75220;SDS011;63802;53.232;6.570;2023-05-23T05:41:23;25.90;;;4.18;;
75220;SDS011;63802;53.232;6.570;2023-05-23T05:43:50;15.10;;;4.50;;
75220;SDS011;63802;53.232;6.570;2023-05-23T05:46:16;13.60;;;4.80;;
75220;SDS011;63802;53.232;6.570;2023-05-23T05:48:42;13.10;;;3.75;;
75220;SDS011;63802;53.232;6.570;2023-05-23T05:51:07;12.50;;;3.65;;
75220;SDS011;63802;53.232;6.570;2023-05-23T05:53:33;13.13;;;3.30;;
75220;SDS011;63802;53.232;6.570;2023-05-23T05:55:58;11.10;;;3.60;;
75220;SDS011;63802;53.232;6.570;2023-05-23T05:58:24;10.88;;;4.00;;
75220;SDS011;63802;53.232;6.570;2023-05-23T06:00:49;12.90;;;3.72;;
75220;SDS011;63802;53.232;6.570;2023-05-23T06:03:15;12.15;;;3.72;;
75220;SDS011;63802;53.232;6.570;2023-05-23T06:05:41;11.38;;;3.15;;
75220;SDS011;63802;53.232;6.570;2023-05-23T06:08:06;9.25;;;3.08;;
75220;SDS011;63802;53.232;6.570;2023-05-23T06:10:32;13.65;;;3.25;;
75220;SDS011;63802;53.232;6.570;2023-05-23T06:12:58;18.60;;;3.38;;
75220;SDS011;63802;53.232;6.570;2023-05-23T06:15:24;11.07;;;3.15;;
75220;SDS011;63802;53.232;6.570;2023-05-23T06:17:50;10.77;;;2.75;;
75220;SDS011;63802;53.232;6.570;2023-05-23T06:20:16;19.25;;;3.50;;
75220;SDS011;63802;53.232;6.570;2023-05-23T06:22:41;13.43;;;3.20;;
75220;SDS011;63802;53.232;6.570;2023-05-23T06:25:06;8.77;;;3.35;;
75220;SDS011;63802;53.232;6.570;2023-05-23T06:27:32;17.73;;;3.80;;
75220;SDS011;63802;53.232;6.570;2023-05-23T06:29:57;13.05;;;3.67;;
75220;SDS011;63802;53.232;6.570;2023-05-23T06:32:23;12.73;;;3.25;;
75220;SDS011;63802;53.232;6.570;2023-05-23T06:34:48;10.93;;;3.08;;
75220;SDS011;63802;53.232;6.570;2023-05-23T06:37:14;16.27;;;3.70;;
75220;SDS011;63802;53.232;6.570;2023-05-23T06:39:39;17.77;;;3.78;;
75220;SDS011;63802;53.232;6.570;2023-05-23T06:42:05;15.68;;;4.55;;
75220;SDS011;63802;53.232;6.570;2023-05-23T06:44:30;20.35;;;3.20;;
75220;SDS011;63802;53.232;6.570;2023-05-23T06:46:56;12.13;;;2.97;;
75220;SDS011;63802;53.232;6.570;2023-05-23T06:49:22;18.05;;;3.30;;
75220;SDS011;63802;53.232;6.570;2023-05-23T06:51:49;15.63;;;3.85;;
75220;SDS011;63802;53.232;6.570;2023-05-23T06:54:14;12.13;;;2.75;;
75220;SDS011;63802;53.232;6.570;2023-05-23T06:56:40;16.52;;;3.53;;
75220;SDS011;63802;53.232;6.570;2023-05-23T06:59:05;21.48;;;3.47;;
75220;SDS011;63802;53.232;6.570;2023-05-23T07:01:31;18.77;;;3.50;;
75220;SDS011;63802;53.232;6.570;2023-05-23T07:03:57;18.52;;;3.60;;
75220;SDS011;63802;53.232;6.570;2023-05-23T07:06:22;14.85;;;3.30;;
75220;SDS011;63802;53.232;6.570;2023-05-23T07:08:48;15.88;;;3.15;;
75220;SDS011;63802;53.232;6.570;2023-05-23T07:11:13;17.48;;;3.95;;
75220;SDS011;63802;53.232;6.570;2023-05-23T07:13:39;13.02;;;2.90;;
75220;SDS011;63802;53.232;6.570;2023-05-23T07:16:04;15.73;;;3.15;;
75220;SDS011;63802;53.232;6.570;2023-05-23T07:18:30;16.95;;;2.88;;
75220;SDS011;63802;53.232;6.570;2023-05-23T07:20:55;12.57;;;2.67;;
75220;SDS011;63802;53.232;6.570;2023-05-23T07:23:22;13.00;;;2.67;;
75220;SDS011;63802;53.232;6.570;2023-05-23T07:25:48;10.98;;;2.35;;
75220;SDS011;63802;53.232;6.570;2023-05-23T07:28:13;12.65;;;2.90;;
75220;SDS011;63802;53.232;6.570;2023-05-23T07:30:40;11.23;;;3.45;;
75220;SDS011;63802;53.232;6.570;2023-05-23T07:33:06;14.27;;;2.60;;
75220;SDS011;63802;53.232;6.570;2023-05-23T07:35:32;18.70;;;2.90;;
75220;SDS011;63802;53.232;6.570;2023-05-23T07:37:58;14.35;;;2.53;;
75220;SDS011;63802;53.232;6.570;2023-05-23T07:40:23;13.02;;;2.88;;
75220;SDS011;63802;53.232;6.570;2023-05-23T07:42:49;7.15;;;2.70;;
75220;SDS011;63802;53.232;6.570;2023-05-23T07:45:15;12.40;;;3.22;;
75220;SDS011;63802;53.232;6.570;2023-05-23T07:47:40;18.38;;;3.13;;
75220;SDS011;63802;53.232;6.570;2023-05-23T07:50:06;16.38;;;3.30;;
75220;SDS011;63802;53.232;6.570;2023-05-23T07:52:32;11.98;;;3.28;;
75220;SDS011;63802;53.232;6.570;2023-05-23T07:54:58;24.13;;;3.95;;
75220;SDS011;63802;53.232;6.570;2023-05-23T07:57:24;10.02;;;2.30;;
75220;SDS011;63802;53.232;6.570;2023-05-23T07:59:50;10.10;;;2.85;;
75220;SDS011;63802;53.232;6.570;2023-05-23T08:02:17;17.75;;;3.17;;
75220;SDS011;63802;53.232;6.570;2023-05-23T08:04:43;13.68;;;2.70;;
75220;SDS011;63802;53.232;6.570;2023-05-23T08:07:09;12.38;;;2.55;;
75220;SDS011;63802;53.232;6.570;2023-05-23T08:09:35;18.52;;;3.17;;
75220;SDS011;63802;53.232;6.570;2023-05-23T08:12:01;19.35;;;3.63;;
75220;SDS011;63802;53.232;6.570;2023-05-23T08:14:26;13.02;;;3.00;;
75220;SDS011;63802;53.232;6.570;2023-05-23T08:16:52;13.82;;;2.35;;
75220;SDS011;63802;53.232;6.570;2023-05-23T08:19:17;8.93;;;2.53;;
75220;SDS011;63802;53.232;6.570;2023-05-23T08:21:42;12.73;;;4.03;;
75220;SDS011;63802;53.232;6.570;2023-05-23T08:24:08;16.25;;;3.17;;
75220;SDS011;63802;53.232;6.570;2023-05-23T08:26:33;16.23;;;2.72;;
75220;SDS011;63802;53.232;6.570;2023-05-23T08:29:00;13.25;;;2.90;;
75220;SDS011;63802;53.232;6.570;2023-05-23T08:31:29;9.23;;;2.50;;
75220;SDS011;63802;53.232;6.570;2023-05-23T08:33:56;17.63;;;2.63;;
75220;SDS011;63802;53.232;6.570;2023-05-23T08:36:21;13.48;;;2.78;;
75220;SDS011;63802;53.232;6.570;2023-05-23T08:38:48;18.50;;;3.20;;
75220;SDS011;63802;53.232;6.570;2023-05-23T08:41:18;18.00;;;3.15;;
75220;SDS011;63802;53.232;6.570;2023-05-23T08:43:44;15.70;;;2.97;;
75220;SDS011;63802;53.232;6.570;2023-05-23T08:46:11;14.82;;;3.55;;
75220;SDS011;63802;53.232;6.570;2023-05-23T08:48:37;14.95;;;2.80;;
75220;SDS011;63802;53.232;6.570;2023-05-23T08:51:03;13.13;;;2.80;;
75220;SDS011;63802;53.232;6.570;2023-05-23T08:53:30;10.77;;;2.58;;
75220;SDS011;63802;53.232;6.570;2023-05-23T08:55:56;12.63;;;2.90;;
75220;SDS011;63802;53.232;6.570;2023-05-23T08:58:26;14.82;;;2.92;;
75220;SDS011;63802;53.232;6.570;2023-05-23T09:00:55;13.07;;;2.75;;
75220;SDS011;63802;53.232;6.570;2023-05-23T09:03:24;13.43;;;2.78;;
75220;SDS011;63802;53.232;6.570;2023-05-23T09:05:52;11.88;;;2.90;;
75220;SDS011;63802;53.232;6.570;2023-05-23T09:08:18;20.77;;;3.10;;
75220;SDS011;63802;53.232;6.570;2023-05-23T09:10:44;12.07;;;2.40;;
75220;SDS011;63802;53.232;6.570;2023-05-23T09:13:09;13.95;;;2.88;;
75220;SDS011;63802;53.232;6.570;2023-05-23T09:15:35;16.77;;;2.97;;
75220;SDS011;63802;53.232;6.570;2023-05-23T09:18:00;14.23;;;2.30;;
75220;SDS011;63802;53.232;6.570;2023-05-23T09:20:26;15.05;;;2.85;;
75220;SDS011;63802;53.232;6.570;2023-05-23T09:22:53;11.75;;;2.55;;
75220;SDS011;63802;53.232;6.570;2023-05-23T09:25:19;18.67;;;2.65;;
75220;SDS011;63802;53.232;6.570;2023-05-23T09:27:45;14.27;;;3.17;;
75220;SDS011;63802;53.232;6.570;2023-05-23T09:30:11;7.85;;;2.25;;
75220;SDS011;63802;53.232;6.570;2023-05-23T09:32:37;17.00;;;3.25;;
75220;SDS011;63802;53.232;6.570;2023-05-23T09:35:06;16.45;;;2.65;;
75220;SDS011;63802;53.232;6.570;2023-05-23T09:37:37;14.82;;;2.65;;
75220;SDS011;63802;53.232;6.570;2023-05-23T09:40:08;12.18;;;2.38;;
75220;SDS011;63802;53.232;6.570;2023-05-23T09:42:35;19.17;;;3.22;;
75220;SDS011;63802;53.232;6.570;2023-05-23T09:45:05;13.90;;;3.03;;
75220;SDS011;63802;53.232;6.570;2023-05-23T09:47:31;9.35;;;2.17;;
75220;SDS011;63802;53.232;6.570;2023-05-23T09:49:57;10.75;;;2.95;;
75220;SDS011;63802;53.232;6.570;2023-05-23T09:52:22;12.32;;;2.70;;
75220;SDS011;63802;53.232;6.570;2023-05-23T09:54:48;17.08;;;2.63;;
75220;SDS011;63802;53.232;6.570;2023-05-23T09:57:14;15.80;;;2.35;;
75220;SDS011;63802;53.232;6.570;2023-05-23T09:59:52;10.40;;;3.03;;
75220;SDS011;63802;53.232;6.570;2023-05-23T10:02:23;13.82;;;2.58;;
75220;SDS011;63802;53.232;6.570;2023-05-23T10:07:58;10.13;;;2.67;;
75220;SDS011;63802;53.232;6.570;2023-05-23T10:10:28;14.77;;;3.20;;
75220;SDS011;63802;53.232;6.570;2023-05-23T10:12:56;10.48;;;2.42;;
75220;SDS011;63802;53.232;6.570;2023-05-23T10:15:24;13.68;;;2.78;;
75220;SDS011;63802;53.232;6.570;2023-05-23T10:18:01;20.98;;;2.40;;
75220;SDS011;63802;53.232;6.570;2023-05-23T10:20:31;9.63;;;2.40;;
75220;SDS011;63802;53.232;6.570;2023-05-23T10:22:59;11.88;;;2.63;;
75220;SDS011;63802;53.232;6.570;2023-05-23T10:25:25;14.38;;;3.13;;
75220;SDS011;63802;53.232;6.570;2023-05-23T10:27:53;11.18;;;3.13;;
75220;SDS011;63802;53.232;6.570;2023-05-23T10:30:23;12.88;;;2.33;;
75220;SDS011;63802;53.232;6.570;2023-05-23T10:32:52;13.18;;;2.67;;
75220;SDS011;63802;53.232;6.570;2023-05-23T10:35:23;17.17;;;2.83;;
75220;SDS011;63802;53.232;6.570;2023-05-23T10:43:59;15.00;;;2.80;;
75220;SDS011;63802;53.232;6.570;2023-05-23T10:49:39;13.27;;;2.17;;
75220;SDS011;63802;53.232;6.570;2023-05-23T10:52:10;7.70;;;2.25;;
75220;SDS011;63802;53.232;6.570;2023-05-23T10:54:44;10.82;;;2.67;;
75220;SDS011;63802;53.232;6.570;2023-05-23T10:57:14;9.68;;;2.30;;
75220;SDS011;63802;53.232;6.570;2023-05-23T10:59:42;17.77;;;2.92;;
75220;SDS011;63802;53.232;6.570;2023-05-23T11:02:13;9.90;;;2.42;;
75220;SDS011;63802;53.232;6.570;2023-05-23T11:04:43;15.38;;;2.35;;
75220;SDS011;63802;53.232;6.570;2023-05-23T11:07:28;12.90;;;2.80;;
75220;SDS011;63802;53.232;6.570;2023-05-23T11:10:10;14.70;;;2.40;;
75220;SDS011;63802;53.232;6.570;2023-05-23T11:12:41;12.15;;;2.53;;
75220;SDS011;63802;53.232;6.570;2023-05-23T11:17:49;11.65;;;2.83;;
75220;SDS011;63802;53.232;6.570;2023-05-23T11:20:17;12.43;;;2.55;;
75220;SDS011;63802;53.232;6.570;2023-05-23T11:22:58;12.07;;;2.30;;
75220;SDS011;63802;53.232;6.570;2023-05-23T11:26:07;11.50;;;3.08;;
75220;SDS011;63802;53.232;6.570;2023-05-23T11:28:14;7.70;;;2.08;;
75220;SDS011;63802;53.232;6.570;2023-05-23T11:30:40;15.98;;;2.75;;
75220;SDS011;63802;53.232;6.570;2023-05-23T11:33:10;15.93;;;2.92;;
75220;SDS011;63802;53.232;6.570;2023-05-23T11:35:40;11.50;;;2.92;;
75220;SDS011;63802;53.232;6.570;2023-05-23T11:38:07;15.20;;;2.80;;
75220;SDS011;63802;53.232;6.570;2023-05-23T11:40:34;11.07;;;2.50;;
75220;SDS011;63802;53.232;6.570;2023-05-23T11:43:05;12.90;;;3.13;;
75220;SDS011;63802;53.232;6.570;2023-05-23T11:45:32;10.07;;;2.17;;
75220;SDS011;63802;53.232;6.570;2023-05-23T11:48:05;12.15;;;2.40;;
75220;SDS011;63802;53.232;6.570;2023-05-23T11:50:53;14.63;;;2.67;;
75220;SDS011;63802;53.232;6.570;2023-05-23T11:53:20;13.43;;;2.30;;
75220;SDS011;63802;53.232;6.570;2023-05-23T11:55:49;12.80;;;3.03;;
75220;SDS011;63802;53.232;6.570;2023-05-23T11:58:17;13.77;;;2.50;;
75220;SDS011;63802;53.232;6.570;2023-05-23T12:00:43;12.75;;;2.55;;
75220;SDS011;63802;53.232;6.570;2023-05-23T12:03:12;6.15;;;2.17;;
75220;SDS011;63802;53.232;6.570;2023-05-23T12:05:38;11.52;;;2.20;;
75220;SDS011;63802;53.232;6.570;2023-05-23T12:08:03;5.93;;;2.10;;
75220;SDS011;63802;53.232;6.570;2023-05-23T12:10:29;10.48;;;2.15;;
75220;SDS011;63802;53.232;6.570;2023-05-23T12:12:54;8.75;;;2.28;;
75220;SDS011;63802;53.232;6.570;2023-05-23T12:15:24;10.00;;;2.75;;
75220;SDS011;63802;53.232;6.570;2023-05-23T12:17:52;10.55;;;2.38;;
75220;SDS011;63802;53.232;6.570;2023-05-23T12:20:18;4.95;;;2.00;;
75220;SDS011;63802;53.232;6.570;2023-05-23T12:22:44;15.45;;;2.53;;
75220;SDS011;63802;53.232;6.570;2023-05-23T12:25:10;9.85;;;2.60;;
75220;SDS011;63802;53.232;6.570;2023-05-23T12:27:36;15.20;;;3.55;;
75220;SDS011;63802;53.232;6.570;2023-05-23T12:30:04;15.50;;;2.97;;
75220;SDS011;63802;53.232;6.570;2023-05-23T12:32:31;14.57;;;2.55;;
75220;SDS011;63802;53.232;6.570;2023-05-23T12:34:57;13.88;;;2.70;;
75220;SDS011;63802;53.232;6.570;2023-05-23T12:37:23;10.32;;;2.20;;
75220;SDS011;63802;53.232;6.570;2023-05-23T12:39:49;9.10;;;1.60;;
75220;SDS011;63802;53.232;6.570;2023-05-23T12:42:15;12.60;;;2.08;;
75220;SDS011;63802;53.232;6.570;2023-05-23T12:44:40;9.38;;;2.20;;
75220;SDS011;63802;53.232;6.570;2023-05-23T12:47:07;15.52;;;2.65;;
75220;SDS011;63802;53.232;6.570;2023-05-23T12:49:34;9.50;;;1.92;;
75220;SDS011;63802;53.232;6.570;2023-05-23T12:52:01;8.68;;;2.45;;
75220;SDS011;63802;53.232;6.570;2023-05-23T12:54:26;13.07;;;2.47;;
75220;SDS011;63802;53.232;6.570;2023-05-23T12:56:51;20.83;;;2.88;;
75220;SDS011;63802;53.232;6.570;2023-05-23T12:59:17;10.07;;;2.10;;
75220;SDS011;63802;53.232;6.570;2023-05-23T13:01:43;9.77;;;1.92;;
75220;SDS011;63802;53.232;6.570;2023-05-23T13:04:08;7.68;;;2.03;;
75220;SDS011;63802;53.232;6.570;2023-05-23T13:06:34;15.55;;;2.22;;
75220;SDS011;63802;53.232;6.570;2023-05-23T13:08:59;8.15;;;2.05;;
75220;SDS011;63802;53.232;6.570;2023-05-23T13:11:28;8.20;;;2.10;;
75220;SDS011;63802;53.232;6.570;2023-05-23T13:13:55;7.55;;;2.00;;
75220;SDS011;63802;53.232;6.570;2023-05-23T13:16:22;17.92;;;2.30;;
75220;SDS011;63802;53.232;6.570;2023-05-23T13:18:47;12.27;;;2.03;;
75220;SDS011;63802;53.232;6.570;2023-05-23T13:21:12;9.10;;;2.03;;
75220;SDS011;63802;53.232;6.570;2023-05-23T13:23:38;11.45;;;2.15;;
75220;SDS011;63802;53.232;6.570;2023-05-23T13:26:04;11.07;;;2.75;;
75220;SDS011;63802;53.232;6.570;2023-05-23T13:28:30;9.77;;;2.72;;
75220;SDS011;63802;53.232;6.570;2023-05-23T13:30:56;8.70;;;2.15;;
75220;SDS011;63802;53.232;6.570;2023-05-23T13:33:21;10.65;;;2.08;;
75220;SDS011;63802;53.232;6.570;2023-05-23T13:35:47;15.73;;;2.90;;
75220;SDS011;63802;53.232;6.570;2023-05-23T13:38:14;11.70;;;2.42;;
75220;SDS011;63802;53.232;6.570;2023-05-23T13:40:42;10.35;;;2.53;;
75220;SDS011;63802;53.232;6.570;2023-05-23T13:43:07;8.45;;;1.88;;
75220;SDS011;63802;53.232;6.570;2023-05-23T13:45:32;12.00;;;2.50;;
75220;SDS011;63802;53.232;6.570;2023-05-23T13:47:58;10.43;;;2.45;;
75220;SDS011;63802;53.232;6.570;2023-05-23T13:50:23;10.00;;;2.42;;
75220;SDS011;63802;53.232;6.570;2023-05-23T13:52:49;11.27;;;2.28;;
75220;SDS011;63802;53.232;6.570;2023-05-23T13:55:15;8.15;;;2.03;;
75220;SDS011;63802;53.232;6.570;2023-05-23T13:57:41;8.35;;;1.60;;
75220;SDS011;63802;53.232;6.570;2023-05-23T14:00:07;8.00;;;1.95;;
75220;SDS011;63802;53.232;6.570;2023-05-23T14:02:33;9.95;;;2.45;;
75220;SDS011;63802;53.232;6.570;2023-05-23T14:04:58;10.23;;;1.90;;
75220;SDS011;63802;53.232;6.570;2023-05-23T14:07:24;17.23;;;2.45;;
75220;SDS011;63802;53.232;6.570;2023-05-23T14:09:49;14.32;;;2.55;;
75220;SDS011;63802;53.232;6.570;2023-05-23T14:12:14;14.02;;;2.45;;
75220;SDS011;63802;53.232;6.570;2023-05-23T14:14:40;9.32;;;2.13;;
75220;SDS011;63802;53.232;6.570;2023-05-23T14:17:05;10.00;;;2.13;;
75220;SDS011;63802;53.232;6.570;2023-05-23T14:19:34;12.25;;;2.40;;
75220;SDS011;63802;53.232;6.570;2023-05-23T14:21:59;10.32;;;2.65;;
75220;SDS011;63802;53.232;6.570;2023-05-23T14:24:24;14.07;;;2.22;;
75220;SDS011;63802;53.232;6.570;2023-05-23T14:26:50;12.23;;;2.22;;
75220;SDS011;63802;53.232;6.570;2023-05-23T14:29:15;14.00;;;2.60;;
75220;SDS011;63802;53.232;6.570;2023-05-23T14:31:40;13.40;;;2.45;;
75220;SDS011;63802;53.232;6.570;2023-05-23T14:34:06;13.55;;;2.60;;
75220;SDS011;63802;53.232;6.570;2023-05-23T14:36:31;8.93;;;2.00;;
75220;SDS011;63802;53.232;6.570;2023-05-23T14:38:57;10.48;;;2.50;;
75220;SDS011;63802;53.232;6.570;2023-05-23T14:41:23;11.63;;;2.22;;
75220;SDS011;63802;53.232;6.570;2023-05-23T14:43:48;8.73;;;1.92;;
75220;SDS011;63802;53.232;6.570;2023-05-23T14:46:15;11.00;;;2.30;;
75220;SDS011;63802;53.232;6.570;2023-05-23T14:48:41;13.68;;;2.40;;
75220;SDS011;63802;53.232;6.570;2023-05-23T14:51:07;9.65;;;2.00;;
75220;SDS011;63802;53.232;6.570;2023-05-23T14:53:32;11.80;;;2.83;;
75220;SDS011;63802;53.232;6.570;2023-05-23T14:55:58;9.98;;;1.98;;